sensor_id;sensor_type;location;lat;lon;timestamp;temperature;humidity
43346;DHT22;28937;51.160;4.146;2023-06-01T00:00:34;21.10;87.60
43346;DHT22;28937;51.160;4.146;2023-06-01T00:03:00;21.10;87.50
43346;DHT22;28937;51.160;4.146;2023-06-01T00:05:26;21.00;87.50
43346;DHT22;28937;51.160;4.146;2023-06-01T00:07:51;21.00;87.60
43346;DHT22;28937;51.160;4.146;2023-06-01T00:10:17;21.00;87.60
43346;DHT22;28937;51.160;4.146;2023-06-01T00:12:42;21.00;87.50
43346;DHT22;28937;51.160;4.146;2023-06-01T00:15:08;21.00;87.60
43346;DHT22;28937;51.160;4.146;2023-06-01T00:17:34;20.90;87.90
43346;DHT22;28937;51.160;4.146;2023-06-01T00:20:00;20.90;87.70
43346;DHT22;28937;51.160;4.146;2023-06-01T00:22:35;20.80;87.70
43346;DHT22;28937;51.160;4.146;2023-06-01T00:25:05;20.80;87.70
43346;DHT22;28937;51.160;4.146;2023-06-01T00:27:31;20.80;87.70
43346;DHT22;28937;51.160;4.146;2023-06-01T00:29:57;20.80;87.80
43346;DHT22;28937;51.160;4.146;2023-06-01T00:32:22;20.70;87.70
43346;DHT22;28937;51.160;4.146;2023-06-01T00:34:48;20.70;87.80
43346;DHT22;28937;51.160;4.146;2023-06-01T00:37:13;20.70;87.80
43346;DHT22;28937;51.160;4.146;2023-06-01T00:39:39;20.70;88.10
43346;DHT22;28937;51.160;4.146;2023-06-01T00:42:04;20.60;87.90
43346;DHT22;28937;51.160;4.146;2023-06-01T00:44:30;20.60;88.00
43346;DHT22;28937;51.160;4.146;2023-06-01T00:46:56;20.60;88.00
43346;DHT22;28937;51.160;4.146;2023-06-01T00:49:24;20.60;88.00
43346;DHT22;28937;51.160;4.146;2023-06-01T00:51:50;20.60;88.00
43346;DHT22;28937;51.160;4.146;2023-06-01T00:54:16;20.50;88.00
43346;DHT22;28937;51.160;4.146;2023-06-01T00:56:42;20.50;88.00
43346;DHT22;28937;51.160;4.146;2023-06-01T00:59:08;20.50;88.00
43346;DHT22;28937;51.160;4.146;2023-06-01T01:01:34;20.50;87.90
43346;DHT22;28937;51.160;4.146;2023-06-01T01:04:01;20.40;88.00
43346;DHT22;28937;51.160;4.146;2023-06-01T01:09:31;20.40;88.00
43346;DHT22;28937;51.160;4.146;2023-06-01T01:12:00;20.30;88.00
43346;DHT22;28937;51.160;4.146;2023-06-01T01:14:50;20.30;88.10
43346;DHT22;28937;51.160;4.146;2023-06-01T01:17:44;20.30;88.10
43346;DHT22;28937;51.160;4.146;2023-06-01T01:20:15;20.20;88.00
43346;DHT22;28937;51.160;4.146;2023-06-01T01:23:00;20.20;88.00
43346;DHT22;28937;51.160;4.146;2023-06-01T01:25:57;20.20;88.00
43346;DHT22;28937;51.160;4.146;2023-06-01T01:28:48;20.20;88.00
43346;DHT22;28937;51.160;4.146;2023-06-01T01:31:17;20.10;88.10
43346;DHT22;28937;51.160;4.146;2023-06-01T01:33:47;20.10;88.20
43346;DHT22;28937;51.160;4.146;2023-06-01T01:36:14;20.10;88.10
43346;DHT22;28937;51.160;4.146;2023-06-01T01:38:40;20.10;88.20
43346;DHT22;28937;51.160;4.146;2023-06-01T01:41:06;20.00;88.10
43346;DHT22;28937;51.160;4.146;2023-06-01T01:43:32;20.00;88.10
43346;DHT22;28937;51.160;4.146;2023-06-01T01:46:24;20.00;88.10
43346;DHT22;28937;51.160;4.146;2023-06-01T01:49:14;20.00;88.10
43346;DHT22;28937;51.160;4.146;2023-06-01T01:54:24;19.90;88.10
43346;DHT22;28937;51.160;4.146;2023-06-01T01:56:53;19.90;88.10
43346;DHT22;28937;51.160;4.146;2023-06-01T01:59:20;19.90;88.10
43346;DHT22;28937;51.160;4.146;2023-06-01T02:01:46;19.80;88.10
43346;DHT22;28937;51.160;4.146;2023-06-01T02:04:12;19.80;88.20
43346;DHT22;28937;51.160;4.146;2023-06-01T02:06:37;19.80;88.10
43346;DHT22;28937;51.160;4.146;2023-06-01T02:09:04;19.80;88.10
43346;DHT22;28937;51.160;4.146;2023-06-01T02:11:33;19.80;88.20
43346;DHT22;28937;51.160;4.146;2023-06-01T02:13:59;19.70;88.20
43346;DHT22;28937;51.160;4.146;2023-06-01T02:16:25;19.70;88.20
43346;DHT22;28937;51.160;4.146;2023-06-01T02:18:51;19.70;88.20
43346;DHT22;28937;51.160;4.146;2023-06-01T02:21:17;19.70;88.20
43346;DHT22;28937;51.160;4.146;2023-06-01T02:23:42;19.60;88.00
43346;DHT22;28937;51.160;4.146;2023-06-01T02:26:09;19.60;88.10
43346;DHT22;28937;51.160;4.146;2023-06-01T02:28:39;19.60;88.10
43346;DHT22;28937;51.160;4.146;2023-06-01T02:31:06;19.50;88.20
43346;DHT22;28937;51.160;4.146;2023-06-01T02:33:32;19.50;88.20
43346;DHT22;28937;51.160;4.146;2023-06-01T02:35:59;19.50;88.20
43346;DHT22;28937;51.160;4.146;2023-06-01T02:38:24;19.40;88.20
43346;DHT22;28937;51.160;4.146;2023-06-01T02:40:50;19.40;88.40
43346;DHT22;28937;51.160;4.146;2023-06-01T02:43:16;19.40;88.30
43346;DHT22;28937;51.160;4.146;2023-06-01T02:45:41;19.30;88.40
43346;DHT22;28937;51.160;4.146;2023-06-01T02:48:07;19.40;88.30
43346;DHT22;28937;51.160;4.146;2023-06-01T02:50:32;19.30;88.10
43346;DHT22;28937;51.160;4.146;2023-06-01T02:52:58;19.30;88.00
43346;DHT22;28937;51.160;4.146;2023-06-01T02:55:24;19.20;87.80
43346;DHT22;28937;51.160;4.146;2023-06-01T02:57:49;19.30;87.80
43346;DHT22;28937;51.160;4.146;2023-06-01T03:00:15;19.30;87.80
43346;DHT22;28937;51.160;4.146;2023-06-01T03:02:45;19.30;87.70
43346;DHT22;28937;51.160;4.146;2023-06-01T03:05:11;19.20;87.60
43346;DHT22;28937;51.160;4.146;2023-06-01T03:07:44;19.20;87.60
43346;DHT22;28937;51.160;4.146;2023-06-01T03:10:10;19.20;87.40
43346;DHT22;28937;51.160;4.146;2023-06-01T03:12:36;19.20;87.40
43346;DHT22;28937;51.160;4.146;2023-06-01T03:15:02;19.10;87.40
43346;DHT22;28937;51.160;4.146;2023-06-01T03:17:28;19.10;87.50
43346;DHT22;28937;51.160;4.146;2023-06-01T03:19:53;19.10;87.50
43346;DHT22;28937;51.160;4.146;2023-06-01T03:22:19;19.10;87.50
43346;DHT22;28937;51.160;4.146;2023-06-01T03:24:45;19.00;87.40
43346;DHT22;28937;51.160;4.146;2023-06-01T03:27:18;19.10;87.60
43346;DHT22;28937;51.160;4.146;2023-06-01T03:29:45;19.00;87.50
43346;DHT22;28937;51.160;4.146;2023-06-01T03:32:11;19.00;87.50
43346;DHT22;28937;51.160;4.146;2023-06-01T03:34:36;18.90;87.50
43346;DHT22;28937;51.160;4.146;2023-06-01T03:37:06;19.00;87.60
43346;DHT22;28937;51.160;4.146;2023-06-01T03:39:33;18.90;87.60
43346;DHT22;28937;51.160;4.146;2023-06-01T03:41:59;18.90;87.50
43346;DHT22;28937;51.160;4.146;2023-06-01T03:44:25;18.90;87.60
43346;DHT22;28937;51.160;4.146;2023-06-01T03:46:51;18.80;87.60
43346;DHT22;28937;51.160;4.146;2023-06-01T03:49:16;18.80;87.80
43346;DHT22;28937;51.160;4.146;2023-06-01T03:51:42;18.80;87.70
43346;DHT22;28937;51.160;4.146;2023-06-01T03:54:08;18.70;87.70
43346;DHT22;28937;51.160;4.146;2023-06-01T03:56:34;18.80;87.70
43346;DHT22;28937;51.160;4.146;2023-06-01T03:59:00;18.70;87.70
43346;DHT22;28937;51.160;4.146;2023-06-01T04:01:27;18.70;87.70
43346;DHT22;28937;51.160;4.146;2023-06-01T04:03:55;18.70;87.60
43346;DHT22;28937;51.160;4.146;2023-06-01T04:06:21;18.70;87.70
43346;DHT22;28937;51.160;4.146;2023-06-01T04:08:47;18.70;87.80
43346;DHT22;28937;51.160;4.146;2023-06-01T04:11:15;18.70;87.80
43346;DHT22;28937;51.160;4.146;2023-06-01T04:13:41;18.50;88.00
43346;DHT22;28937;51.160;4.146;2023-06-01T04:16:06;17.50;90.40
43346;DHT22;28937;51.160;4.146;2023-06-01T04:18:32;16.80;91.60
43346;DHT22;28937;51.160;4.146;2023-06-01T04:20:58;16.50;92.40
43346;DHT22;28937;51.160;4.146;2023-06-01T04:23:24;16.10;93.20
43346;DHT22;28937;51.160;4.146;2023-06-01T04:25:50;15.70;93.90
43346;DHT22;28937;51.160;4.146;2023-06-01T04:28:17;15.60;94.50
43346;DHT22;28937;51.160;4.146;2023-06-01T04:30:43;15.40;94.90
43346;DHT22;28937;51.160;4.146;2023-06-01T04:33:13;15.20;95.20
43346;DHT22;28937;51.160;4.146;2023-06-01T04:35:39;15.10;95.70
43346;DHT22;28937;51.160;4.146;2023-06-01T04:38:05;15.10;95.70
43346;DHT22;28937;51.160;4.146;2023-06-01T04:40:30;15.10;95.90
43346;DHT22;28937;51.160;4.146;2023-06-01T04:42:56;14.80;96.20
43346;DHT22;28937;51.160;4.146;2023-06-01T04:45:23;14.50;96.90
43346;DHT22;28937;51.160;4.146;2023-06-01T04:47:50;14.20;97.80
43346;DHT22;28937;51.160;4.146;2023-06-01T04:50:17;14.20;98.20
43346;DHT22;28937;51.160;4.146;2023-06-01T04:52:43;14.40;97.60
43346;DHT22;28937;51.160;4.146;2023-06-01T04:55:09;14.20;98.00
43346;DHT22;28937;51.160;4.146;2023-06-01T04:57:36;14.50;97.70
43346;DHT22;28937;51.160;4.146;2023-06-01T05:00:03;14.50;97.70
43346;DHT22;28937;51.160;4.146;2023-06-01T05:02:31;14.60;97.50
43346;DHT22;28937;51.160;4.146;2023-06-01T05:04:57;14.80;97.20
43346;DHT22;28937;51.160;4.146;2023-06-01T05:07:22;14.70;97.40
43346;DHT22;28937;51.160;4.146;2023-06-01T05:09:50;14.50;97.70
43346;DHT22;28937;51.160;4.146;2023-06-01T05:12:15;14.70;97.60
43346;DHT22;28937;51.160;4.146;2023-06-01T05:14:41;14.60;97.60
43346;DHT22;28937;51.160;4.146;2023-06-01T05:17:06;14.60;97.50
43346;DHT22;28937;51.160;4.146;2023-06-01T05:19:32;14.40;97.70
43346;DHT22;28937;51.160;4.146;2023-06-01T05:21:57;14.60;97.60
43346;DHT22;28937;51.160;4.146;2023-06-01T05:24:23;14.40;98.00
43346;DHT22;28937;51.160;4.146;2023-06-01T05:26:49;14.50;98.20
43346;DHT22;28937;51.160;4.146;2023-06-01T05:29:14;14.40;98.30
43346;DHT22;28937;51.160;4.146;2023-06-01T05:31:41;14.50;98.10
43346;DHT22;28937;51.160;4.146;2023-06-01T05:34:07;14.10;98.60
43346;DHT22;28937;51.160;4.146;2023-06-01T05:36:32;14.20;98.90
43346;DHT22;28937;51.160;4.146;2023-06-01T05:38:58;14.20;98.40
43346;DHT22;28937;51.160;4.146;2023-06-01T05:41:24;14.30;98.30
43346;DHT22;28937;51.160;4.146;2023-06-01T05:43:51;14.60;98.10
43346;DHT22;28937;51.160;4.146;2023-06-01T05:46:17;14.90;97.10
43346;DHT22;28937;51.160;4.146;2023-06-01T05:48:43;15.60;96.40
43346;DHT22;28937;51.160;4.146;2023-06-01T05:51:11;16.00;95.50
43346;DHT22;28937;51.160;4.146;2023-06-01T05:53:37;16.20;94.80
43346;DHT22;28937;51.160;4.146;2023-06-01T05:56:02;16.40;94.30
43346;DHT22;28937;51.160;4.146;2023-06-01T05:58:28;16.60;93.80
43346;DHT22;28937;51.160;4.146;2023-06-01T06:00:54;16.60;93.60
43346;DHT22;28937;51.160;4.146;2023-06-01T06:03:19;16.70;93.40
43346;DHT22;28937;51.160;4.146;2023-06-01T06:05:46;16.80;93.30
43346;DHT22;28937;51.160;4.146;2023-06-01T06:08:12;16.80;93.30
43346;DHT22;28937;51.160;4.146;2023-06-01T06:10:38;16.80;93.20
43346;DHT22;28937;51.160;4.146;2023-06-01T06:13:03;17.00;93.10
43346;DHT22;28937;51.160;4.146;2023-06-01T06:15:29;17.10;92.70
43346;DHT22;28937;51.160;4.146;2023-06-01T06:17:55;17.20;92.40
43346;DHT22;28937;51.160;4.146;2023-06-01T06:20:21;17.20;92.30
43346;DHT22;28937;51.160;4.146;2023-06-01T06:22:50;17.30;92.30
43346;DHT22;28937;51.160;4.146;2023-06-01T06:25:16;17.20;92.00
43346;DHT22;28937;51.160;4.146;2023-06-01T06:27:42;17.20;92.00
43346;DHT22;28937;51.160;4.146;2023-06-01T06:30:08;17.30;91.80
43346;DHT22;28937;51.160;4.146;2023-06-01T06:32:34;17.20;91.80
43346;DHT22;28937;51.160;4.146;2023-06-01T06:35:00;17.30;92.00
43346;DHT22;28937;51.160;4.146;2023-06-01T06:37:27;17.40;91.90
43346;DHT22;28937;51.160;4.146;2023-06-01T06:39:53;17.40;91.80
43346;DHT22;28937;51.160;4.146;2023-06-01T06:42:18;17.50;91.60
43346;DHT22;28937;51.160;4.146;2023-06-01T06:44:44;17.50;91.20
43346;DHT22;28937;51.160;4.146;2023-06-01T06:47:09;17.50;91.10
43346;DHT22;28937;51.160;4.146;2023-06-01T06:49:35;17.50;91.10
43346;DHT22;28937;51.160;4.146;2023-06-01T06:52:00;17.70;91.20
43346;DHT22;28937;51.160;4.146;2023-06-01T06:54:26;17.70;91.10
43346;DHT22;28937;51.160;4.146;2023-06-01T06:56:51;17.80;91.00
43346;DHT22;28937;51.160;4.146;2023-06-01T06:59:17;18.00;91.10
43346;DHT22;28937;51.160;4.146;2023-06-01T07:01:42;18.10;91.30
43346;DHT22;28937;51.160;4.146;2023-06-01T07:04:08;18.20;90.80
43346;DHT22;28937;51.160;4.146;2023-06-01T07:06:34;18.30;90.80
43346;DHT22;28937;51.160;4.146;2023-06-01T07:09:00;18.40;90.70
43346;DHT22;28937;51.160;4.146;2023-06-01T07:11:26;18.50;90.60
43346;DHT22;28937;51.160;4.146;2023-06-01T07:13:55;18.50;90.80
43346;DHT22;28937;51.160;4.146;2023-06-01T07:16:23;18.60;90.40
43346;DHT22;28937;51.160;4.146;2023-06-01T07:18:50;18.70;90.30
43346;DHT22;28937;51.160;4.146;2023-06-01T07:21:16;18.80;90.20
43346;DHT22;28937;51.160;4.146;2023-06-01T07:23:42;18.90;90.10
43346;DHT22;28937;51.160;4.146;2023-06-01T07:26:08;19.00;90.00
43346;DHT22;28937;51.160;4.146;2023-06-01T07:28:34;19.00;89.30
43346;DHT22;28937;51.160;4.146;2023-06-01T07:31:00;19.10;89.30
43346;DHT22;28937;51.160;4.146;2023-06-01T07:33:25;19.20;89.20
43346;DHT22;28937;51.160;4.146;2023-06-01T07:35:51;19.20;88.60
43346;DHT22;28937;51.160;4.146;2023-06-01T07:38:19;19.30;88.60
43346;DHT22;28937;51.160;4.146;2023-06-01T07:40:45;19.30;87.50
43346;DHT22;28937;51.160;4.146;2023-06-01T07:43:11;19.40;88.00
43346;DHT22;28937;51.160;4.146;2023-06-01T07:45:38;19.40;87.70
43346;DHT22;28937;51.160;4.146;2023-06-01T07:48:04;19.50;86.50
43346;DHT22;28937;51.160;4.146;2023-06-01T07:50:30;19.50;86.10
43346;DHT22;28937;51.160;4.146;2023-06-01T07:52:57;19.50;86.60
43346;DHT22;28937;51.160;4.146;2023-06-01T07:55:23;19.60;85.40
43346;DHT22;28937;51.160;4.146;2023-06-01T07:57:49;19.60;85.60
43346;DHT22;28937;51.160;4.146;2023-06-01T08:00:15;19.70;86.40
43346;DHT22;28937;51.160;4.146;2023-06-01T08:02:43;19.70;85.70
43346;DHT22;28937;51.160;4.146;2023-06-01T08:05:09;19.80;85.70
43346;DHT22;28937;51.160;4.146;2023-06-01T08:07:35;19.80;84.70
43346;DHT22;28937;51.160;4.146;2023-06-01T08:10:06;19.90;85.70
43346;DHT22;28937;51.160;4.146;2023-06-01T08:12:34;19.90;84.40
43346;DHT22;28937;51.160;4.146;2023-06-01T08:15:01;19.90;84.80
43346;DHT22;28937;51.160;4.146;2023-06-01T08:17:26;20.00;85.10
43346;DHT22;28937;51.160;4.146;2023-06-01T08:19:52;20.00;84.60
43346;DHT22;28937;51.160;4.146;2023-06-01T08:22:20;20.00;84.60
43346;DHT22;28937;51.160;4.146;2023-06-01T08:24:46;20.10;84.10
43346;DHT22;28937;51.160;4.146;2023-06-01T08:27:20;20.10;83.50
43346;DHT22;28937;51.160;4.146;2023-06-01T08:29:46;20.20;84.10
43346;DHT22;28937;51.160;4.146;2023-06-01T08:32:13;20.20;83.70
43346;DHT22;28937;51.160;4.146;2023-06-01T08:34:39;20.20;83.20
43346;DHT22;28937;51.160;4.146;2023-06-01T08:37:05;20.20;83.70
43346;DHT22;28937;51.160;4.146;2023-06-01T08:39:31;20.20;83.30
43346;DHT22;28937;51.160;4.146;2023-06-01T08:44:37;20.30;82.80
43346;DHT22;28937;51.160;4.146;2023-06-01T08:47:04;20.30;82.70
43346;DHT22;28937;51.160;4.146;2023-06-01T08:49:31;20.30;81.60
43346;DHT22;28937;51.160;4.146;2023-06-01T08:52:00;20.40;82.10
43346;DHT22;28937;51.160;4.146;2023-06-01T08:54:27;20.40;81.30
43346;DHT22;28937;51.160;4.146;2023-06-01T08:56:59;20.40;81.50
43346;DHT22;28937;51.160;4.146;2023-06-01T08:59:25;20.40;81.60
43346;DHT22;28937;51.160;4.146;2023-06-01T09:01:53;20.50;81.90
43346;DHT22;28937;51.160;4.146;2023-06-01T09:04:18;20.50;82.60
43346;DHT22;28937;51.160;4.146;2023-06-01T09:06:44;20.50;81.40
43346;DHT22;28937;51.160;4.146;2023-06-01T09:09:09;20.50;80.70
43346;DHT22;28937;51.160;4.146;2023-06-01T09:11:38;20.50;81.50
43346;DHT22;28937;51.160;4.146;2023-06-01T09:14:21;20.50;80.70
43346;DHT22;28937;51.160;4.146;2023-06-01T09:16:47;20.60;80.90
43346;DHT22;28937;51.160;4.146;2023-06-01T09:19:13;20.60;81.70
43346;DHT22;28937;51.160;4.146;2023-06-01T09:21:39;20.60;81.50
43346;DHT22;28937;51.160;4.146;2023-06-01T09:24:20;20.70;81.10
43346;DHT22;28937;51.160;4.146;2023-06-01T09:26:48;20.60;81.30
43346;DHT22;28937;51.160;4.146;2023-06-01T09:29:14;20.60;81.90
43346;DHT22;28937;51.160;4.146;2023-06-01T09:31:42;20.60;81.90
43346;DHT22;28937;51.160;4.146;2023-06-01T09:34:09;20.60;81.60
43346;DHT22;28937;51.160;4.146;2023-06-01T09:36:37;20.60;82.30
43346;DHT22;28937;51.160;4.146;2023-06-01T09:39:07;20.60;81.40
43346;DHT22;28937;51.160;4.146;2023-06-01T09:41:56;20.60;81.50
43346;DHT22;28937;51.160;4.146;2023-06-01T09:44:33;20.60;81.80
43346;DHT22;28937;51.160;4.146;2023-06-01T09:47:03;20.60;81.30
43346;DHT22;28937;51.160;4.146;2023-06-01T09:49:36;20.60;81.90
43346;DHT22;28937;51.160;4.146;2023-06-01T09:54:34;20.70;81.40
43346;DHT22;28937;51.160;4.146;2023-06-01T09:57:02;20.70;81.00
43346;DHT22;28937;51.160;4.146;2023-06-01T09:59:29;20.70;80.40
43346;DHT22;28937;51.160;4.146;2023-06-01T10:01:58;20.70;81.20
43346;DHT22;28937;51.160;4.146;2023-06-01T10:04:28;20.70;80.40
43346;DHT22;28937;51.160;4.146;2023-06-01T10:06:55;20.70;80.60
43346;DHT22;28937;51.160;4.146;2023-06-01T10:09:23;20.70;81.00
43346;DHT22;28937;51.160;4.146;2023-06-01T10:11:51;20.70;80.60
43346;DHT22;28937;51.160;4.146;2023-06-01T10:14:19;20.80;81.60
43346;DHT22;28937;51.160;4.146;2023-06-01T10:16:45;20.80;81.70
43346;DHT22;28937;51.160;4.146;2023-06-01T10:19:37;20.80;81.20
43346;DHT22;28937;51.160;4.146;2023-06-01T10:22:04;20.80;80.90
43346;DHT22;28937;51.160;4.146;2023-06-01T10:24:30;20.80;81.30
43346;DHT22;28937;51.160;4.146;2023-06-01T10:29:23;20.90;81.00
43346;DHT22;28937;51.160;4.146;2023-06-01T10:31:49;20.90;81.70
43346;DHT22;28937;51.160;4.146;2023-06-01T10:34:41;20.90;81.20
43346;DHT22;28937;51.160;4.146;2023-06-01T10:39:34;20.80;80.70
43346;DHT22;28937;51.160;4.146;2023-06-01T10:44:46;20.90;81.60
43346;DHT22;28937;51.160;4.146;2023-06-01T10:52:28;20.90;80.10
43346;DHT22;28937;51.160;4.146;2023-06-01T10:54:55;20.90;81.70
43346;DHT22;28937;51.160;4.146;2023-06-01T10:57:25;20.90;81.40
43346;DHT22;28937;51.160;4.146;2023-06-01T11:03:00;20.90;81.70
43346;DHT22;28937;51.160;4.146;2023-06-01T11:05:45;20.90;81.20
43346;DHT22;28937;51.160;4.146;2023-06-01T11:13:31;21.00;82.20
43346;DHT22;28937;51.160;4.146;2023-06-01T11:21:23;21.00;81.60
43346;DHT22;28937;51.160;4.146;2023-06-01T11:23:50;21.10;82.20
43346;DHT22;28937;51.160;4.146;2023-06-01T11:26:18;21.10;82.30
43346;DHT22;28937;51.160;4.146;2023-06-01T11:28:48;21.10;81.50
43346;DHT22;28937;51.160;4.146;2023-06-01T11:31:15;21.20;81.00
43346;DHT22;28937;51.160;4.146;2023-06-01T11:33:50;21.20;82.30
43346;DHT22;28937;51.160;4.146;2023-06-01T11:36:25;21.10;83.00
43346;DHT22;28937;51.160;4.146;2023-06-01T11:38:52;21.10;82.90
43346;DHT22;28937;51.160;4.146;2023-06-01T11:41:19;21.20;83.00
43346;DHT22;28937;51.160;4.146;2023-06-01T11:43:56;21.20;83.20
43346;DHT22;28937;51.160;4.146;2023-06-01T11:46:23;21.20;82.90
43346;DHT22;28937;51.160;4.146;2023-06-01T11:49:00;21.20;83.00
43346;DHT22;28937;51.160;4.146;2023-06-01T11:51:37;21.20;83.10
43346;DHT22;28937;51.160;4.146;2023-06-01T11:54:05;21.20;82.90
43346;DHT22;28937;51.160;4.146;2023-06-01T11:56:31;21.30;82.30
43346;DHT22;28937;51.160;4.146;2023-06-01T11:59:01;21.30;82.70
43346;DHT22;28937;51.160;4.146;2023-06-01T12:01:29;21.30;82.40
43346;DHT22;28937;51.160;4.146;2023-06-01T12:03:55;21.30;82.80
43346;DHT22;28937;51.160;4.146;2023-06-01T12:06:24;21.30;82.80
43346;DHT22;28937;51.160;4.146;2023-06-01T12:08:54;21.30;82.50
43346;DHT22;28937;51.160;4.146;2023-06-01T12:11:22;21.30;82.70
43346;DHT22;28937;51.160;4.146;2023-06-01T12:13:52;21.30;82.40
43346;DHT22;28937;51.160;4.146;2023-06-01T12:16:18;21.40;82.50
43346;DHT22;28937;51.160;4.146;2023-06-01T12:18:44;21.40;82.70
43346;DHT22;28937;51.160;4.146;2023-06-01T12:21:14;21.40;82.40
43346;DHT22;28937;51.160;4.146;2023-06-01T12:23:40;21.40;82.80
43346;DHT22;28937;51.160;4.146;2023-06-01T12:26:07;21.40;81.50
43346;DHT22;28937;51.160;4.146;2023-06-01T12:28:50;21.40;82.10
43346;DHT22;28937;51.160;4.146;2023-06-01T12:31:20;21.40;81.20
43346;DHT22;28937;51.160;4.146;2023-06-01T12:33:46;21.40;81.50
43346;DHT22;28937;51.160;4.146;2023-06-01T12:38:58;21.50;82.40
43346;DHT22;28937;51.160;4.146;2023-06-01T12:41:24;21.40;82.30
43346;DHT22;28937;51.160;4.146;2023-06-01T12:43:51;21.50;83.00
43346;DHT22;28937;51.160;4.146;2023-06-01T12:46:21;21.50;82.20
43346;DHT22;28937;51.160;4.146;2023-06-01T12:48:48;21.50;81.80
43346;DHT22;28937;51.160;4.146;2023-06-01T12:51:14;21.50;83.00
43346;DHT22;28937;51.160;4.146;2023-06-01T12:53:40;21.50;82.70
43346;DHT22;28937;51.160;4.146;2023-06-01T12:56:07;21.50;82.50
43346;DHT22;28937;51.160;4.146;2023-06-01T12:58:33;21.50;82.10
43346;DHT22;28937;51.160;4.146;2023-06-01T13:00:59;21.50;82.90
43346;DHT22;28937;51.160;4.146;2023-06-01T13:03:24;21.50;81.50
43346;DHT22;28937;51.160;4.146;2023-06-01T13:05:50;21.50;82.20
43346;DHT22;28937;51.160;4.146;2023-06-01T13:08:16;21.50;81.40
43346;DHT22;28937;51.160;4.146;2023-06-01T13:10:42;21.50;81.30
43346;DHT22;28937;51.160;4.146;2023-06-01T13:13:08;21.50;82.40
43346;DHT22;28937;51.160;4.146;2023-06-01T13:15:34;21.50;82.30
43346;DHT22;28937;51.160;4.146;2023-06-01T13:18:01;21.60;82.20
43346;DHT22;28937;51.160;4.146;2023-06-01T13:20:26;21.60;82.00
43346;DHT22;28937;51.160;4.146;2023-06-01T13:22:52;21.60;81.40
43346;DHT22;28937;51.160;4.146;2023-06-01T13:25:18;21.60;81.40
43346;DHT22;28937;51.160;4.146;2023-06-01T13:27:47;21.50;82.10
43346;DHT22;28937;51.160;4.146;2023-06-01T13:30:13;21.50;81.80
43346;DHT22;28937;51.160;4.146;2023-06-01T13:32:38;21.50;81.70
43346;DHT22;28937;51.160;4.146;2023-06-01T13:35:04;21.60;81.60
43346;DHT22;28937;51.160;4.146;2023-06-01T13:37:30;21.60;81.10
43346;DHT22;28937;51.160;4.146;2023-06-01T13:39:56;21.60;81.40
43346;DHT22;28937;51.160;4.146;2023-06-01T13:42:21;21.60;81.90
43346;DHT22;28937;51.160;4.146;2023-06-01T13:44:47;21.70;81.30
43346;DHT22;28937;51.160;4.146;2023-06-01T13:47:13;21.70;81.90
43346;DHT22;28937;51.160;4.146;2023-06-01T13:49:43;21.70;81.20
43346;DHT22;28937;51.160;4.146;2023-06-01T13:52:10;21.70;80.30
43346;DHT22;28937;51.160;4.146;2023-06-01T13:54:36;21.70;80.70
43346;DHT22;28937;51.160;4.146;2023-06-01T13:57:02;21.70;81.40
43346;DHT22;28937;51.160;4.146;2023-06-01T13:59:29;21.70;81.80
43346;DHT22;28937;51.160;4.146;2023-06-01T14:01:56;21.70;82.00
43346;DHT22;28937;51.160;4.146;2023-06-01T14:04:22;21.70;82.10
43346;DHT22;28937;51.160;4.146;2023-06-01T14:06:48;21.70;82.60
43346;DHT22;28937;51.160;4.146;2023-06-01T14:09:16;21.80;82.80
43346;DHT22;28937;51.160;4.146;2023-06-01T14:11:41;21.80;83.00
43346;DHT22;28937;51.160;4.146;2023-06-01T14:14:07;21.80;83.30
43346;DHT22;28937;51.160;4.146;2023-06-01T14:16:32;21.80;83.30
43346;DHT22;28937;51.160;4.146;2023-06-01T14:18:58;21.80;83.70
43346;DHT22;28937;51.160;4.146;2023-06-01T14:21:24;21.80;84.00
43346;DHT22;28937;51.160;4.146;2023-06-01T14:23:49;21.80;83.90
43346;DHT22;28937;51.160;4.146;2023-06-01T14:26:15;21.80;83.70
43346;DHT22;28937;51.160;4.146;2023-06-01T14:28:41;21.80;83.90
43346;DHT22;28937;51.160;4.146;2023-06-01T14:31:07;21.80;83.70
43346;DHT22;28937;51.160;4.146;2023-06-01T14:33:32;21.80;83.70
43346;DHT22;28937;51.160;4.146;2023-06-01T14:35:58;21.80;83.80
43346;DHT22;28937;51.160;4.146;2023-06-01T14:38:24;21.70;83.20
43346;DHT22;28937;51.160;4.146;2023-06-01T14:40:49;21.70;82.20
43346;DHT22;28937;51.160;4.146;2023-06-01T14:43:15;21.80;82.60
43346;DHT22;28937;51.160;4.146;2023-06-01T14:45:40;21.80;82.60
43346;DHT22;28937;51.160;4.146;2023-06-01T14:48:06;21.90;83.10
43346;DHT22;28937;51.160;4.146;2023-06-01T14:50:32;22.00;83.00
43346;DHT22;28937;51.160;4.146;2023-06-01T14:52:57;22.00;82.50
43346;DHT22;28937;51.160;4.146;2023-06-01T14:55:27;22.00;83.00
43346;DHT22;28937;51.160;4.146;2023-06-01T14:57:54;22.10;82.40
43346;DHT22;28937;51.160;4.146;2023-06-01T15:00:20;22.00;82.40
43346;DHT22;28937;51.160;4.146;2023-06-01T15:02:46;22.10;82.80
43346;DHT22;28937;51.160;4.146;2023-06-01T15:05:12;22.10;82.50
43346;DHT22;28937;51.160;4.146;2023-06-01T15:07:38;22.10;81.90
43346;DHT22;28937;51.160;4.146;2023-06-01T15:10:04;22.00;83.60
43346;DHT22;28937;51.160;4.146;2023-06-01T15:12:30;22.10;84.20
43346;DHT22;28937;51.160;4.146;2023-06-01T15:14:56;22.10;83.60
43346;DHT22;28937;51.160;4.146;2023-06-01T15:17:22;22.00;83.80
43346;DHT22;28937;51.160;4.146;2023-06-01T15:19:47;22.00;83.10
43346;DHT22;28937;51.160;4.146;2023-06-01T15:22:13;22.00;83.40
43346;DHT22;28937;51.160;4.146;2023-06-01T15:24:39;21.90;83.70
43346;DHT22;28937;51.160;4.146;2023-06-01T15:27:06;21.90;83.90
43346;DHT22;28937;51.160;4.146;2023-06-01T15:29:33;22.00;84.00
43346;DHT22;28937;51.160;4.146;2023-06-01T15:31:58;22.00;84.40
43346;DHT22;28937;51.160;4.146;2023-06-01T15:34:24;21.90;83.50
43346;DHT22;28937;51.160;4.146;2023-06-01T15:36:50;22.00;86.40
43346;DHT22;28937;51.160;4.146;2023-06-01T15:39:15;21.90;85.90
43346;DHT22;28937;51.160;4.146;2023-06-01T15:41:41;21.90;87.60
43346;DHT22;28937;51.160;4.146;2023-06-01T15:44:07;22.00;86.20
43346;DHT22;28937;51.160;4.146;2023-06-01T15:46:33;22.00;85.70
43346;DHT22;28937;51.160;4.146;2023-06-01T15:48:59;22.00;85.50
43346;DHT22;28937;51.160;4.146;2023-06-01T15:51:25;21.90;83.60
43346;DHT22;28937;51.160;4.146;2023-06-01T15:53:51;21.80;84.90
43346;DHT22;28937;51.160;4.146;2023-06-01T15:56:17;21.80;84.30
43346;DHT22;28937;51.160;4.146;2023-06-01T15:58:43;21.80;84.40
43346;DHT22;28937;51.160;4.146;2023-06-01T16:01:09;21.80;84.60
43346;DHT22;28937;51.160;4.146;2023-06-01T16:03:34;21.90;85.00
43346;DHT22;28937;51.160;4.146;2023-06-01T16:06:00;21.80;85.80
43346;DHT22;28937;51.160;4.146;2023-06-01T16:08:26;21.80;86.00
43346;DHT22;28937;51.160;4.146;2023-06-01T16:10:52;21.90;86.30